createdAt,value
2022-08-20T00:02:16.703Z,31.14
2022-08-20T00:04:45.330Z,31.73
2022-08-20T00:07:13.918Z,31.86
2022-08-20T00:09:43.015Z,31.63
2022-08-20T00:12:12.787Z,31.68
2022-08-20T00:14:42.356Z,31.77
2022-08-20T00:17:10.777Z,32.46
2022-08-20T00:19:39.341Z,32.72
2022-08-20T00:22:07.647Z,32.63
2022-08-20T00:24:35.863Z,32.55
2022-08-20T00:27:04.338Z,32.59
2022-08-20T00:29:32.727Z,32.69
2022-08-20T00:32:02.308Z,31.62
2022-08-20T00:34:30.788Z,31.81
2022-08-20T00:36:58.972Z,31.40
2022-08-20T00:39:27.194Z,31.79
2022-08-20T00:41:55.555Z,31.66
2022-08-20T00:44:24.567Z,31.55
2022-08-20T00:46:53.660Z,30.83
2022-08-20T00:49:25.992Z,30.62
2022-08-20T00:51:57.662Z,30.83
2022-08-20T00:54:28.416Z,31.00
2022-08-20T00:56:59.527Z,30.71
2022-08-20T00:59:30.217Z,31.24
2022-08-20T01:01:59.201Z,31.89
2022-08-20T01:04:31.480Z,31.47
2022-08-20T01:06:59.801Z,31.94
2022-08-20T01:09:50.201Z,31.96
2022-08-20T01:12:17.871Z,31.65
2022-08-20T01:14:46.931Z,32.17
2022-08-20T01:17:18.745Z,31.95
2022-08-20T01:19:50.769Z,31.48
2022-08-20T01:22:42.812Z,31.65
2022-08-20T01:25:14.672Z,31.92
2022-08-20T01:27:44.575Z,32.50
2022-08-20T01:30:14.506Z,32.99
2022-08-20T01:32:42.733Z,33.70
2022-08-20T01:35:11.584Z,33.79
2022-08-20T01:37:40.006Z,33.60
2022-08-20T01:40:09.877Z,33.53
2022-08-20T01:42:59.162Z,32.59
2022-08-20T01:45:30.269Z,32.66
2022-08-20T01:47:58.901Z,32.60
2022-08-20T01:50:29.272Z,31.97
2022-08-20T01:53:01.640Z,32.04
2022-08-20T01:55:29.842Z,32.29
2022-08-20T01:58:00.231Z,32.13
2022-08-20T02:00:29.480Z,31.92
2022-08-20T02:02:57.648Z,32.06
2022-08-20T02:05:29.944Z,32.18
2022-08-20T02:07:59.165Z,32.29
2022-08-20T02:10:27.589Z,32.25
2022-08-20T02:13:01.856Z,32.28
2022-08-20T02:15:34.728Z,32.26
2022-08-20T02:18:08.273Z,31.98
2022-08-20T02:20:37.234Z,32.19
2022-08-20T02:23:06.931Z,31.70
2022-08-20T02:25:38.159Z,31.91
2022-08-20T02:28:10.570Z,31.90
2022-08-20T02:30:42.011Z,31.90
2022-08-20T02:33:12.134Z,31.00
2022-08-20T02:35:42.856Z,32.43
2022-08-20T02:38:11.447Z,32.24
2022-08-20T02:40:40.252Z,32.22
2022-08-20T02:43:09.933Z,31.93
2022-08-20T02:45:43.941Z,32.44
2022-08-20T02:48:15.593Z,32.27
2022-08-20T02:50:44.278Z,30.25
2022-08-20T02:53:12.710Z,31.85
2022-08-20T02:55:41.113Z,32.07
2022-08-20T02:58:10.744Z,31.37
2022-08-20T03:00:39.192Z,31.32
2022-08-20T03:03:08.509Z,31.13
2022-08-20T03:05:38.073Z,31.51
2022-08-20T03:08:09.496Z,31.11
2022-08-20T03:10:39.288Z,30.97
2022-08-20T03:13:12.392Z,31.08
2022-08-20T03:15:44.009Z,30.68
2022-08-20T03:18:12.145Z,31.32
2022-08-20T03:20:41.018Z,31.34
2022-08-20T03:23:09.475Z,31.54
2022-08-20T03:25:37.911Z,31.53
2022-08-20T03:28:06.450Z,31.42
2022-08-20T03:30:34.855Z,31.46
2022-08-20T03:33:05.090Z,31.19
2022-08-20T03:35:34.267Z,31.31
2022-08-20T03:38:02.797Z,31.30
2022-08-20T03:40:33.520Z,31.09
2022-08-20T03:43:02.102Z,31.07
2022-08-20T03:45:32.708Z,31.11
2022-08-20T03:48:01.842Z,30.82
2022-08-20T03:50:32.851Z,30.76
2022-08-20T03:53:01.387Z,29.24
2022-08-20T03:55:31.499Z,30.75
2022-08-20T03:58:03.116Z,30.93
2022-08-20T04:00:33.575Z,31.11
2022-08-20T04:03:01.695Z,30.62
2022-08-20T04:05:32.948Z,29.30
2022-08-20T04:08:03.210Z,29.63
2022-08-20T04:10:32.374Z,29.93
2022-08-20T04:13:01.554Z,29.81
2022-08-20T04:15:30.042Z,30.34
2022-08-20T04:17:59.752Z,29.93
2022-08-20T04:20:28.515Z,29.55
2022-08-20T04:22:59.553Z,29.34
2022-08-20T04:25:29.759Z,30.26
2022-08-20T04:27:59.106Z,29.88
2022-08-20T04:30:27.487Z,30.41
2022-08-20T04:32:56.199Z,30.35
2022-08-20T04:35:25.597Z,30.34
2022-08-20T04:38:01.507Z,29.62
2022-08-20T04:40:48.192Z,30.78
2022-08-20T04:43:16.368Z,30.41
2022-08-20T04:45:44.872Z,30.89
2022-08-20T04:48:15.183Z,30.76
2022-08-20T04:50:45.353Z,28.80
2022-08-20T04:53:22.723Z,28.69
2022-08-20T04:55:54.723Z,29.13
2022-08-20T04:58:26.388Z,29.83
2022-08-20T05:00:56.725Z,29.58
2022-08-20T05:03:30.542Z,28.40
2022-08-20T05:05:59.065Z,28.92
2022-08-20T05:08:29.404Z,28.32
2022-08-20T05:11:16.277Z,28.63
2022-08-20T05:13:46.971Z,29.36
2022-08-20T05:16:18.125Z,29.26
2022-08-20T05:18:52.474Z,29.29
2022-08-20T05:21:21.885Z,29.70
2022-08-20T05:23:51.308Z,29.09
2022-08-20T05:26:20.518Z,29.25
2022-08-20T05:28:54.176Z,28.70
2022-08-20T05:31:31.400Z,28.83
2022-08-20T05:34:02.353Z,28.37
2022-08-20T05:36:30.898Z,28.05
2022-08-20T05:39:00.509Z,27.97
2022-08-20T05:41:30.475Z,27.82
2022-08-20T05:44:01.982Z,28.05
2022-08-20T05:46:31.346Z,27.69
2022-08-20T05:49:01.573Z,27.01
2022-08-20T05:51:30.334Z,27.31
2022-08-20T05:54:00.135Z,27.61
2022-08-20T05:56:31.322Z,26.66
2022-08-20T05:59:02.676Z,26.18
2022-08-20T06:01:31.020Z,26.36
2022-08-20T06:04:13.319Z,26.34
2022-08-20T06:06:44.677Z,26.23
2022-08-20T06:09:31.374Z,26.17
2022-08-20T06:12:02.819Z,26.75
2022-08-20T06:14:31.906Z,26.52
2022-08-20T06:17:07.200Z,25.98
2022-08-20T06:19:36.607Z,26.60
2022-08-20T06:22:17.285Z,26.06
2022-08-20T06:24:50.317Z,25.40
2022-08-20T06:27:18.539Z,26.06
2022-08-20T06:29:47.220Z,26.23
2022-08-20T06:32:15.941Z,25.76
2022-08-20T06:34:50.711Z,25.62
2022-08-20T06:37:21.385Z,25.60
2022-08-20T06:39:51.301Z,25.77
2022-08-20T06:42:21.337Z,26.19
2022-08-20T06:44:50.952Z,26.41
2022-08-20T06:47:20.473Z,26.04
2022-08-20T06:49:49.793Z,26.02
2022-08-20T06:52:18.290Z,26.51
2022-08-20T06:54:46.601Z,25.43
2022-08-20T06:57:17.300Z,25.08
2022-08-20T06:59:49.029Z,24.88
2022-08-20T07:02:28.483Z,23.47
2022-08-20T07:04:58.386Z,22.37
2022-08-20T07:07:26.742Z,20.63
2022-08-20T07:10:01.103Z,19.46
2022-08-20T07:12:31.022Z,19.06
2022-08-20T07:14:59.311Z,18.39
2022-08-20T07:17:27.493Z,17.10
2022-08-20T07:19:55.791Z,16.28
2022-08-20T07:22:24.971Z,15.43
2022-08-20T07:24:53.235Z,14.88
2022-08-20T07:27:23.657Z,14.03
2022-08-20T07:30:14.302Z,13.37
2022-08-20T07:32:45.345Z,14.67
2022-08-20T07:35:16.205Z,14.91
2022-08-20T07:37:46.934Z,15.22
2022-08-20T07:40:21.277Z,15.61
2022-08-20T07:42:52.421Z,16.06
2022-08-20T07:45:22.296Z,16.07
2022-08-20T07:47:51.861Z,16.00
2022-08-20T07:50:21.805Z,16.29
2022-08-20T07:52:52.863Z,16.97
2022-08-20T07:55:22.552Z,17.41
2022-08-20T07:57:51.764Z,18.24
2022-08-20T08:00:24.246Z,18.50
2022-08-20T08:02:52.743Z,19.20
2022-08-20T08:05:21.154Z,19.08
2022-08-20T08:07:49.490Z,18.65
2022-08-20T08:10:20.297Z,18.73
2022-08-20T08:12:51.720Z,18.85
2022-08-20T08:15:23.910Z,19.01
2022-08-20T08:17:53.439Z,19.47
2022-08-20T08:20:22.699Z,19.83
2022-08-20T08:22:51.279Z,20.50
2022-08-20T08:25:19.606Z,20.81
2022-08-20T08:27:49.263Z,21.20
2022-08-20T08:30:18.408Z,21.18
2022-08-20T08:33:05.603Z,20.76
2022-08-20T08:35:34.300Z,21.22
2022-08-20T08:38:02.801Z,20.73
2022-08-20T08:40:32.005Z,21.02
2022-08-20T08:43:02.968Z,20.35
2022-08-20T08:45:36.901Z,19.39
2022-08-20T08:48:07.834Z,18.39
2022-08-20T08:50:53.191Z,17.70
2022-08-20T08:53:26.711Z,18.44
2022-08-20T08:55:55.078Z,19.16
2022-08-20T08:58:23.408Z,20.00
2022-08-20T09:00:56.392Z,20.62
2022-08-20T09:03:29.906Z,20.77
2022-08-20T09:05:59.951Z,21.03
2022-08-20T09:08:32.289Z,21.22
2022-08-20T09:11:05.223Z,21.69
2022-08-20T09:13:33.585Z,22.56
2022-08-20T09:16:02.062Z,22.61
2022-08-20T09:18:32.542Z,22.87
2022-08-20T09:21:01.129Z,23.38
2022-08-20T09:23:29.350Z,22.89
2022-08-20T09:25:57.897Z,21.77
2022-08-20T09:28:32.244Z,18.46
2022-08-20T09:31:03.334Z,17.40
2022-08-20T09:33:34.265Z,17.25
2022-08-20T09:36:02.320Z,18.54
2022-08-20T09:38:30.390Z,20.14
2022-08-20T09:40:58.861Z,20.41
2022-08-20T09:43:27.084Z,20.96
2022-08-20T09:45:55.179Z,20.28
2022-08-20T09:48:29.759Z,19.57
2022-08-20T09:51:02.096Z,18.68
2022-08-20T09:53:31.297Z,18.14
2022-08-20T09:56:00.237Z,17.66
2022-08-20T09:58:41.699Z,16.59
2022-08-20T10:01:14.138Z,16.88
2022-08-20T10:03:42.773Z,17.02
2022-08-20T10:06:14.873Z,17.25
2022-08-20T10:08:43.047Z,17.04
2022-08-20T10:11:11.826Z,16.88
2022-08-20T10:13:40.185Z,16.69
2022-08-20T10:16:08.374Z,16.93
2022-08-20T10:18:36.897Z,16.48
2022-08-20T10:21:05.373Z,16.64
2022-08-20T10:23:34.847Z,16.79
2022-08-20T10:26:03.267Z,16.88
2022-08-20T10:28:31.559Z,17.00
2022-08-20T10:30:59.679Z,16.96
2022-08-20T10:33:28.022Z,17.23
2022-08-20T10:35:59.883Z,17.02
2022-08-20T10:38:28.483Z,16.75
2022-08-20T10:40:57.999Z,15.95
2022-08-20T10:43:26.183Z,15.81
2022-08-20T10:45:54.407Z,16.33
2022-08-20T10:48:22.693Z,16.51
2022-08-20T10:50:50.921Z,16.25
2022-08-20T10:53:19.635Z,16.59
2022-08-20T10:55:47.915Z,16.46
2022-08-20T10:58:17.474Z,16.53
2022-08-20T11:00:48.706Z,16.64
2022-08-20T11:03:16.942Z,17.10
2022-08-20T11:05:45.025Z,17.39
2022-08-20T11:08:13.347Z,17.28
2022-08-20T11:10:42.030Z,17.52
2022-08-20T11:13:12.417Z,17.93
2022-08-20T11:15:43.943Z,18.20
2022-08-20T11:18:13.194Z,18.62
2022-08-20T11:20:41.489Z,18.84
2022-08-20T11:23:09.666Z,19.03
2022-08-20T11:25:37.723Z,19.04
2022-08-20T11:28:06.573Z,19.11
2022-08-20T11:30:35.927Z,19.32
2022-08-20T11:33:05.947Z,19.12
2022-08-20T11:35:48.663Z,19.44
2022-08-20T11:38:18.129Z,19.97
2022-08-20T11:40:47.448Z,19.89
2022-08-20T11:43:16.906Z,20.64
2022-08-20T11:45:46.562Z,20.16
2022-08-20T11:48:16.995Z,20.04
2022-08-20T11:50:45.243Z,20.40
2022-08-20T11:53:13.429Z,20.45
2022-08-20T11:55:43.910Z,20.54
2022-08-20T11:58:12.167Z,20.79
2022-08-20T12:00:40.409Z,20.90
2022-08-20T12:03:10.399Z,20.75
2022-08-20T12:05:43.776Z,20.90
2022-08-20T12:08:27.170Z,21.17
2022-08-20T12:10:57.563Z,21.34
2022-08-20T12:13:48.447Z,21.41
2022-08-20T12:16:14.433Z,21.61
2022-08-20T12:18:42.899Z,21.72
2022-08-20T12:21:12.317Z,21.92
2022-08-20T12:23:40.469Z,22.48
2022-08-20T12:26:08.827Z,22.44
2022-08-20T12:28:36.921Z,22.41
2022-08-20T12:31:05.201Z,22.32
2022-08-20T12:33:33.652Z,21.99
2022-08-20T12:36:01.753Z,22.08
2022-08-20T12:38:31.475Z,21.71
2022-08-20T12:40:59.847Z,22.28
2022-08-20T12:43:28.164Z,22.37
2022-08-20T12:45:56.317Z,22.70
2022-08-20T12:48:24.735Z,22.79
2022-08-20T12:50:52.857Z,22.83
2022-08-20T12:53:21.141Z,23.70
2022-08-20T12:55:50.821Z,24.28
2022-08-20T12:58:19.447Z,24.94
2022-08-20T13:00:50.414Z,24.65
2022-08-20T13:03:20.863Z,24.25
2022-08-20T13:05:50.856Z,24.25
2022-08-20T13:08:19.796Z,24.74
2022-08-20T13:10:48.450Z,24.35
2022-08-20T13:13:20.438Z,24.39
2022-08-20T13:15:50.163Z,24.37
2022-08-20T13:18:18.592Z,25.23
2022-08-20T13:20:46.866Z,25.53
2022-08-20T13:23:15.092Z,25.29
2022-08-20T13:25:43.372Z,26.13
2022-08-20T13:28:11.527Z,27.53
2022-08-20T13:30:41.699Z,27.37
2022-08-20T13:33:10.100Z,27.67
2022-08-20T13:35:38.291Z,27.62
2022-08-20T13:38:06.713Z,28.18
2022-08-20T13:40:34.976Z,27.73
2022-08-20T13:43:06.810Z,27.57
2022-08-20T13:45:36.805Z,26.54
2022-08-20T13:48:09.973Z,26.26
2022-08-20T13:50:44.101Z,25.97
2022-08-20T13:53:16.196Z,26.35
2022-08-20T13:55:45.217Z,25.80
2022-08-20T13:58:13.461Z,25.78
2022-08-20T14:00:41.695Z,25.66
2022-08-20T14:03:11.563Z,25.00
2022-08-20T14:05:39.976Z,25.38
2022-08-20T14:08:10.252Z,25.13
2022-08-20T14:10:39.535Z,25.78
2022-08-20T14:13:15.089Z,26.08
2022-08-20T14:15:44.131Z,26.51
2022-08-20T14:18:14.538Z,26.91
2022-08-20T14:20:45.484Z,27.16
2022-08-20T14:23:14.772Z,27.41
2022-08-20T14:25:46.409Z,27.16
2022-08-20T14:28:18.179Z,27.16
2022-08-20T14:30:53.459Z,27.38
2022-08-20T14:33:24.016Z,27.74
2022-08-20T14:35:53.637Z,27.19
2022-08-20T14:38:21.791Z,28.77
2022-08-20T14:40:50.699Z,28.79
2022-08-20T14:43:19.687Z,28.18
2022-08-20T14:45:47.853Z,28.84
2022-08-20T14:48:16.271Z,28.64
2022-08-20T14:50:46.105Z,28.52
2022-08-20T14:53:14.182Z,29.45
2022-08-20T14:55:42.517Z,29.27
2022-08-20T14:58:12.640Z,29.28
2022-08-20T15:00:41.475Z,29.85
2022-08-20T15:03:11.077Z,29.96
2022-08-20T15:05:40.503Z,29.64
2022-08-20T15:08:11.066Z,29.76
2022-08-20T15:10:40.412Z,29.90
2022-08-20T15:13:09.119Z,29.75
2022-08-20T15:15:37.309Z,29.65
2022-08-20T15:18:06.189Z,29.87
2022-08-20T15:20:36.012Z,29.79
2022-08-20T15:23:04.760Z,30.04
2022-08-20T15:25:37.525Z,29.77
2022-08-20T15:28:08.333Z,29.56
2022-08-20T15:30:37.884Z,29.86
2022-08-20T15:33:06.076Z,29.90
2022-08-20T15:35:34.422Z,29.53
2022-08-20T15:38:03.347Z,29.78
2022-08-20T15:40:34.843Z,29.23
2022-08-20T15:43:05.232Z,29.37
2022-08-20T15:45:34.305Z,29.64
2022-08-20T15:48:09.071Z,29.09
2022-08-20T15:51:03.227Z,28.14
2022-08-20T15:53:43.913Z,28.96
2022-08-20T15:56:30.154Z,28.56
2022-08-20T15:59:05.494Z,28.87
2022-08-20T16:01:54.591Z,28.28
2022-08-20T16:04:35.963Z,28.92
2022-08-20T16:07:09.231Z,28.90
2022-08-20T16:09:51.993Z,28.93
2022-08-20T16:12:26.644Z,28.60
2022-08-20T16:15:01.233Z,28.41
2022-08-20T16:17:33.250Z,28.11
2022-08-20T16:20:08.268Z,28.41
2022-08-20T16:22:39.873Z,28.57
2022-08-20T16:25:08.888Z,28.52
2022-08-20T16:27:49.386Z,27.58
2022-08-20T16:30:21.824Z,27.98
2022-08-20T16:32:56.107Z,27.78
2022-08-20T16:35:30.213Z,27.85
2022-08-20T16:38:03.982Z,27.20
2022-08-20T16:40:35.215Z,27.08
2022-08-20T16:43:07.311Z,26.86
2022-08-20T16:45:42.489Z,26.76
2022-08-20T16:48:14.067Z,27.45
2022-08-20T16:50:47.061Z,27.23
2022-08-20T16:53:18.690Z,27.52
2022-08-20T16:55:47.001Z,28.06
2022-08-20T16:58:16.856Z,27.82
2022-08-20T17:00:45.756Z,28.23
2022-08-20T17:03:31.722Z,27.74
2022-08-20T17:06:18.271Z,28.19
2022-08-20T17:08:50.149Z,28.55
2022-08-20T17:11:26.024Z,28.70
2022-08-20T17:14:07.959Z,28.17
2022-08-20T17:16:39.416Z,29.08
2022-08-20T17:19:11.880Z,27.53
2022-08-20T17:21:40.934Z,29.10
2022-08-20T17:24:16.489Z,29.07
2022-08-20T17:26:47.884Z,28.80
2022-08-20T17:29:20.466Z,28.41
2022-08-20T17:31:51.357Z,28.55
2022-08-20T17:34:22.820Z,28.34
2022-08-20T17:36:54.072Z,28.45
2022-08-20T17:39:23.594Z,28.59
2022-08-20T17:41:54.025Z,27.92
2022-08-20T17:44:29.452Z,27.28
2022-08-20T17:46:59.289Z,27.45
2022-08-20T17:49:35.488Z,27.28
2022-08-20T17:52:06.841Z,27.77
2022-08-20T17:54:35.891Z,27.09
2022-08-20T17:57:06.926Z,28.47
2022-08-20T18:00:00.924Z,28.18
2022-08-20T18:02:26.937Z,28.96
2022-08-20T18:04:57.013Z,28.77
2022-08-20T18:07:28.583Z,28.37
2022-08-20T18:09:59.532Z,28.33
2022-08-20T18:12:30.856Z,28.50
2022-08-20T18:15:08.723Z,28.50
2022-08-20T18:17:58.050Z,28.34
2022-08-20T18:20:40.618Z,28.69
2022-08-20T18:23:14.130Z,28.42
2022-08-20T18:25:47.261Z,28.68
2022-08-20T18:28:18.161Z,28.34
2022-08-20T18:30:54.624Z,28.14
2022-08-20T18:33:31.196Z,27.86
2022-08-20T18:36:07.141Z,27.75
2022-08-20T18:38:37.427Z,28.53
2022-08-20T18:41:08.012Z,27.97
2022-08-20T18:43:36.651Z,28.36
2022-08-20T18:46:16.298Z,27.49
2022-08-20T18:48:56.536Z,27.32
2022-08-20T18:51:33.946Z,27.34
2022-08-20T18:54:02.172Z,28.07
2022-08-20T18:56:33.374Z,27.54
2022-08-20T18:59:02.666Z,26.48
2022-08-20T19:01:33.517Z,27.79
2022-08-20T19:04:02.022Z,27.88
2022-08-20T19:06:39.937Z,27.26
2022-08-20T19:09:13.119Z,27.04
2022-08-20T19:11:57.221Z,26.15
2022-08-20T19:14:50.686Z,25.94
2022-08-20T19:17:26.587Z,26.10
2022-08-20T19:20:00.453Z,26.96
2022-08-20T19:22:29.321Z,26.87
2022-08-20T19:24:58.792Z,26.86
2022-08-20T19:27:28.425Z,26.41
2022-08-20T19:29:57.911Z,27.38
2022-08-20T19:32:31.054Z,26.15
2022-08-20T19:35:02.872Z,26.21
2022-08-20T19:37:39.629Z,26.30
2022-08-20T19:40:21.388Z,25.45
2022-08-20T19:42:50.431Z,26.03
2022-08-20T19:45:27.813Z,25.42
2022-08-20T19:48:08.102Z,25.86
2022-08-20T19:50:40.488Z,25.50
2022-08-20T19:53:23.706Z,25.60
2022-08-20T19:56:01.178Z,26.19
2022-08-20T19:58:31.319Z,26.08
2022-08-20T20:01:00.134Z,26.49
2022-08-20T20:03:31.126Z,26.56
2022-08-20T20:06:02.475Z,26.58
2022-08-20T20:08:38.819Z,26.74
2022-08-20T20:11:07.547Z,26.99
2022-08-20T20:13:39.591Z,27.43
2022-08-20T20:16:09.433Z,27.41
2022-08-20T20:18:42.368Z,27.14
2022-08-20T20:21:14.652Z,26.87
2022-08-20T20:23:46.389Z,27.72
2022-08-20T20:26:20.088Z,27.59
2022-08-20T20:28:50.102Z,27.78
2022-08-20T20:31:23.269Z,27.30
2022-08-20T20:33:55.933Z,26.82
2022-08-20T20:36:36.846Z,26.90
2022-08-20T20:39:14.133Z,27.24
2022-08-20T20:41:51.682Z,26.65
2022-08-20T20:44:21.275Z,27.67
2022-08-20T20:46:51.086Z,27.21
2022-08-20T20:49:24.206Z,26.99
2022-08-20T20:51:56.732Z,27.66
2022-08-20T20:54:28.592Z,27.80
2022-08-20T20:57:00.792Z,27.21
2022-08-20T20:59:28.948Z,27.87
2022-08-20T21:01:57.548Z,27.65
2022-08-20T21:04:28.074Z,27.21
2022-08-20T21:06:58.042Z,27.37
2022-08-20T21:09:27.500Z,27.60
2022-08-20T21:11:55.688Z,27.88
2022-08-20T21:14:23.840Z,27.64
2022-08-20T21:16:52.581Z,28.03
2022-08-20T21:19:22.189Z,27.32
2022-08-20T21:21:51.817Z,27.56
2022-08-20T21:24:20.388Z,28.30
2022-08-20T21:26:48.805Z,28.36
2022-08-20T21:29:19.315Z,28.23
2022-08-20T21:31:47.802Z,28.55
2022-08-20T21:34:16.654Z,28.76
2022-08-20T21:36:45.217Z,28.91
2022-08-20T21:39:15.207Z,28.58
2022-08-20T21:41:43.859Z,28.55
2022-08-20T21:44:15.804Z,28.64
2022-08-20T21:46:50.042Z,28.77
2022-08-20T21:49:19.713Z,28.47
2022-08-20T21:51:48.387Z,28.48
2022-08-20T21:54:18.245Z,28.74
2022-08-20T21:56:47.235Z,28.76
2022-08-20T21:59:17.701Z,28.50
2022-08-20T22:01:46.146Z,28.66
2022-08-20T22:04:14.488Z,28.97
2022-08-20T22:06:42.978Z,29.03
2022-08-20T22:09:11.359Z,28.65
2022-08-20T22:11:41.318Z,28.36
2022-08-20T22:14:10.590Z,28.31
2022-08-20T22:16:39.142Z,28.74
2022-08-20T22:19:16.097Z,27.99
2022-08-20T22:21:44.780Z,26.95
2022-08-20T22:24:14.802Z,27.77
2022-08-20T22:26:44.520Z,28.23
2022-08-20T22:29:13.430Z,28.19
2022-08-20T22:31:43.290Z,28.21
2022-08-20T22:34:12.758Z,28.32
2022-08-20T22:36:41.516Z,28.52
2022-08-20T22:39:10.495Z,28.73
2022-08-20T22:41:38.777Z,28.83
2022-08-20T22:44:08.483Z,28.26
2022-08-20T22:46:42.480Z,28.31
2022-08-20T22:49:15.784Z,28.60
2022-08-20T22:51:44.716Z,28.30
2022-08-20T22:54:14.212Z,28.73
2022-08-20T22:56:42.646Z,28.99
2022-08-20T22:59:13.400Z,28.58
2022-08-20T23:01:44.988Z,28.97
2022-08-20T23:04:15.976Z,28.85
2022-08-20T23:06:44.097Z,29.34
2022-08-20T23:09:13.074Z,29.31
2022-08-20T23:11:41.790Z,29.08
2022-08-20T23:14:09.962Z,29.08
2022-08-20T23:16:40.669Z,28.42
2022-08-20T23:19:09.849Z,28.91
2022-08-20T23:21:37.919Z,28.67
2022-08-20T23:24:08.807Z,29.13
2022-08-20T23:26:44.749Z,29.00
2022-08-20T23:29:25.452Z,29.08
2022-08-20T23:31:56.143Z,28.69
2022-08-20T23:34:24.855Z,29.19
2022-08-20T23:36:53.630Z,29.02
2022-08-20T23:39:22.421Z,28.97
2022-08-20T23:41:50.968Z,29.49
2022-08-20T23:44:25.231Z,29.44
2022-08-20T23:46:58.696Z,29.03
2022-08-20T23:49:26.702Z,27.88
2022-08-20T23:51:55.388Z,29.30
2022-08-20T23:54:23.894Z,29.26
2022-08-20T23:56:52.006Z,29.94
2022-08-20T23:59:25.744Z,29.33
